createdAt,value
2018-04-17T00:00:08.163Z,101918.95
2018-04-17T00:01:12.357Z,101920.25
2018-04-17T00:02:17.385Z,101921.53
2018-04-17T00:03:28.147Z,101916.38
2018-04-17T00:04:37.370Z,101922.78
2018-04-17T00:05:42.528Z,101922.38
2018-04-17T00:06:46.829Z,101920.66
2018-04-17T00:08:01.361Z,101920.23
2018-04-17T00:09:08.141Z,101919.38
2018-04-17T00:10:12.457Z,101926.20
2018-04-17T00:11:17.464Z,101925.37
2018-04-17T00:12:26.871Z,101923.65
2018-04-17T00:13:33.841Z,101927.92
2018-04-17T00:14:38.497Z,101928.77
2018-04-17T00:15:42.701Z,101928.77
2018-04-17T00:16:48.721Z,101925.80
2018-04-17T00:18:01.618Z,101924.52
2018-04-17T00:19:07.705Z,101926.63
2018-04-17T00:20:12.167Z,101921.55
2018-04-17T00:21:17.457Z,101927.06
2018-04-17T00:22:35.130Z,101927.91
2018-04-17T00:23:40.133Z,101926.20
2018-04-17T00:24:45.113Z,101925.37
2018-04-17T00:25:54.889Z,101928.78
2018-04-17T00:27:06.436Z,101926.22
2018-04-17T00:28:10.664Z,101929.61
2018-04-17T00:29:14.841Z,101928.75
2018-04-17T00:30:24.647Z,101930.03
2018-04-17T00:31:34.156Z,101933.88
2018-04-17T00:32:39.500Z,101936.44
2018-04-17T00:33:43.874Z,101936.84
2018-04-17T00:34:51.799Z,101936.84
2018-04-17T00:36:03.755Z,101944.95
2018-04-17T00:37:09.223Z,101940.27
2018-04-17T00:38:13.421Z,101942.39
2018-04-17T00:39:23.119Z,101938.55
2018-04-17T00:40:40.266Z,101938.14
2018-04-17T00:41:45.141Z,101940.27
2018-04-17T00:42:53.796Z,101942.83
2018-04-17T00:44:02.798Z,101945.80
2018-04-17T00:45:08.275Z,101940.25
2018-04-17T00:46:13.206Z,101938.53
2018-04-17T00:47:17.398Z,101944.06
2018-04-17T00:48:27.843Z,101940.70
2018-04-17T00:49:35.462Z,101938.11
2018-04-17T00:50:40.864Z,101943.23
2018-04-17T00:51:45.059Z,101940.67
2018-04-17T00:52:51.335Z,101938.11
2018-04-17T00:54:13.604Z,101939.39
2018-04-17T00:55:19.894Z,101936.39
2018-04-17T00:56:27.071Z,101936.83
2018-04-17T00:57:35.391Z,101941.95
2018-04-17T00:58:39.595Z,101943.27
2018-04-17T00:59:43.787Z,101943.23
2018-04-17T01:00:52.278Z,101939.39
2018-04-17T01:02:01.501Z,101946.20
2018-04-17T01:03:08.183Z,101945.36
2018-04-17T01:04:12.399Z,101944.05
2018-04-17T01:05:16.604Z,101948.32
2018-04-17T01:06:26.723Z,101944.05
2018-04-17T01:07:36.407Z,101945.77
2018-04-17T01:08:40.620Z,101942.77
2018-04-17T01:09:44.832Z,101949.60
2018-04-17T01:10:53.505Z,101956.88
2018-04-17T01:12:04.127Z,101946.61
2018-04-17T01:13:08.771Z,101947.02
2018-04-17T01:14:13.030Z,101949.13
2018-04-17T01:15:17.360Z,101941.45
2018-04-17T01:16:30.997Z,101940.17
2018-04-17T01:17:37.491Z,101935.05
2018-04-17T01:18:41.709Z,101936.73
2018-04-17T01:19:46.080Z,101946.57
2018-04-17T01:20:58.006Z,101940.17
2018-04-17T01:22:06.495Z,101946.14
2018-04-17T01:23:10.715Z,101946.17
2018-04-17T01:24:15.115Z,101941.45
2018-04-17T01:25:25.207Z,101948.30
2018-04-17T01:26:34.953Z,101943.57
2018-04-17T01:27:40.294Z,101948.25
2018-04-17T01:28:44.546Z,101950.41
2018-04-17T01:29:57.181Z,101941.41
2018-04-17T01:31:06.639Z,101949.54
2018-04-17T01:32:10.836Z,101947.85
2018-04-17T01:33:15.234Z,101951.29
2018-04-17T01:34:24.962Z,101952.16
2018-04-17T01:35:34.975Z,101959.84
2018-04-17T01:36:39.420Z,101956.88
2018-04-17T01:37:43.617Z,101956.88
2018-04-17T01:38:57.445Z,101960.30
2018-04-17T01:40:07.246Z,101956.48
2018-04-17T01:41:11.445Z,101958.63
2018-04-17T01:42:15.740Z,101959.91
2018-04-17T01:43:25.368Z,101960.31
2018-04-17T01:44:36.475Z,101950.54
2018-04-17T01:45:40.685Z,101953.94
2018-04-17T01:46:44.939Z,101956.48
2018-04-17T01:47:54.653Z,101956.94
2018-04-17T01:49:04.158Z,101959.89
2018-04-17T01:50:08.701Z,101958.63
2018-04-17T01:51:12.892Z,101956.92
2018-04-17T01:52:17.082Z,101959.50
2018-04-17T01:53:29.296Z,101963.75
2018-04-17T01:54:38.756Z,101962.05
2018-04-17T01:55:43.008Z,101965.87
2018-04-17T01:56:51.625Z,101964.17
2018-04-17T01:58:00.060Z,101965.45
2018-04-17T01:59:07.410Z,101966.30
2018-04-17T02:00:12.361Z,101967.58
2018-04-17T02:01:16.893Z,101966.70
2018-04-17T02:02:31.299Z,101970.13
2018-04-17T02:03:38.087Z,101973.13
2018-04-17T02:04:42.302Z,101975.25
2018-04-17T02:05:47.900Z,101972.27
2018-04-17T02:06:59.647Z,101975.67
2018-04-17T02:08:07.812Z,101970.56
2018-04-17T02:09:12.071Z,101973.98
2018-04-17T02:10:16.274Z,101977.38
2018-04-17T02:11:26.618Z,101972.26
2018-04-17T02:12:33.985Z,101976.96
2018-04-17T02:13:38.948Z,101978.66
2018-04-17T02:14:43.265Z,101976.95
2018-04-17T02:15:47.451Z,101976.52
2018-04-17T02:17:01.908Z,101981.23
2018-04-17T02:18:08.189Z,101988.46
2018-04-17T02:19:12.810Z,101988.87
2018-04-17T02:20:17.286Z,101991.03
2018-04-17T02:21:27.814Z,101986.78
2018-04-17T02:22:37.760Z,101985.05
2018-04-17T02:23:41.953Z,101987.20
2018-04-17T02:24:46.168Z,101989.75
2018-04-17T02:25:56.983Z,101990.16
2018-04-17T02:27:04.559Z,101986.77
2018-04-17T02:28:09.538Z,101983.77
2018-04-17T02:29:14.262Z,101985.91
2018-04-17T02:30:22.063Z,101985.05
2018-04-17T02:31:32.623Z,101981.65
2018-04-17T02:32:38.084Z,101985.05
2018-04-17T02:33:42.446Z,101985.06
2018-04-17T02:34:50.863Z,101984.61
2018-04-17T02:35:59.803Z,101987.20
2018-04-17T02:37:08.056Z,101988.46
2018-04-17T02:38:12.242Z,101985.91
2018-04-17T02:39:16.424Z,101987.19
2018-04-17T02:40:27.419Z,101985.49
2018-04-17T02:41:35.842Z,101987.61
2018-04-17T02:42:40.933Z,101989.31
2018-04-17T02:43:45.157Z,101989.33
2018-04-17T02:44:53.482Z,101988.02
2018-04-17T02:46:02.705Z,101986.34
2018-04-17T02:47:08.487Z,101985.47
2018-04-17T02:48:12.828Z,101988.46
2018-04-17T02:49:17.063Z,101985.92
2018-04-17T02:50:30.959Z,101985.92
2018-04-17T02:51:37.820Z,101988.45
2018-04-17T02:52:42.051Z,101990.61
2018-04-17T02:53:47.088Z,101988.89
2018-04-17T02:55:01.235Z,101982.92
2018-04-17T02:56:07.853Z,101990.62
2018-04-17T02:57:12.220Z,101982.94
2018-04-17T02:58:16.530Z,101990.61
2018-04-17T02:59:25.214Z,101990.18
2018-04-17T03:00:33.629Z,101987.62
2018-04-17T03:01:38.651Z,101989.73
2018-04-17T03:02:43.693Z,101991.03
2018-04-17T03:03:51.455Z,101991.89
2018-04-17T03:05:00.816Z,101989.33
2018-04-17T03:06:07.947Z,101991.44
2018-04-17T03:07:12.235Z,101995.27
2018-04-17T03:08:16.547Z,101993.14
2018-04-17T03:09:29.069Z,101982.89
2018-04-17T03:10:38.260Z,101985.47
2018-04-17T03:11:44.114Z,101987.59
2018-04-17T03:12:51.618Z,101988.45
2018-04-17T03:14:06.445Z,101989.73
2018-04-17T03:15:11.729Z,101987.58
2018-04-17T03:16:15.912Z,101987.17
2018-04-17T03:17:25.448Z,101982.92
2018-04-17T03:18:35.568Z,101986.31
2018-04-17T03:19:39.765Z,101989.32
2018-04-17T03:20:43.977Z,101990.60
2018-04-17T03:21:51.071Z,101991.86
2018-04-17T03:23:00.562Z,102000.36
2018-04-17T03:24:09.256Z,101997.80
2018-04-17T03:25:14.218Z,101994.00
2018-04-17T03:26:21.091Z,101990.16
2018-04-17T03:27:31.438Z,101995.67
2018-04-17T03:28:38.928Z,101996.08
2018-04-17T03:29:43.127Z,101993.12
2018-04-17T03:30:48.811Z,101998.23
2018-04-17T03:32:01.479Z,101991.81
2018-04-17T03:33:09.167Z,101990.98
2018-04-17T03:34:14.135Z,101993.09
2018-04-17T03:35:22.695Z,101990.10
2018-04-17T03:36:31.688Z,101994.36
2018-04-17T03:37:37.861Z,101994.80
2018-04-17T03:38:42.937Z,101997.35
2018-04-17T03:39:47.231Z,101990.13
2018-04-17T03:41:02.253Z,101993.09
2018-04-17T03:42:08.028Z,101991.39
2018-04-17T03:43:13.015Z,101991.39
2018-04-17T03:44:17.490Z,101992.68
2018-04-17T03:45:29.303Z,102000.34
2018-04-17T03:46:37.154Z,101999.50
2018-04-17T03:47:41.358Z,101999.06
2018-04-17T03:48:45.876Z,101999.91
2018-04-17T03:49:58.526Z,102000.73
2018-04-17T03:51:05.963Z,102003.70
2018-04-17T03:52:10.479Z,102001.58
2018-04-17T03:53:14.677Z,102005.84
2018-04-17T03:54:23.622Z,102004.13
2018-04-17T03:55:34.043Z,102008.38
2018-04-17T03:56:39.048Z,102008.36
2018-04-17T03:57:43.350Z,102003.67
2018-04-17T03:58:51.597Z,102007.50
2018-04-17T04:00:03.013Z,102007.08
2018-04-17T04:01:08.257Z,102014.75
2018-04-17T04:02:13.236Z,102009.63
2018-04-17T04:03:17.447Z,102010.92
2018-04-17T04:04:27.815Z,102010.10
2018-04-17T04:05:36.088Z,102011.36
2018-04-17T04:06:40.342Z,102007.09
2018-04-17T04:07:44.705Z,102012.22
2018-04-17T04:08:53.529Z,102017.30
2018-04-17T04:10:03.768Z,102016.91
2018-04-17T04:11:08.767Z,102018.59
2018-04-17T04:12:13.138Z,102021.98
2018-04-17T04:13:17.578Z,102019.46
2018-04-17T04:14:28.277Z,102018.62
2018-04-17T04:15:36.563Z,102019.89
2018-04-17T04:17:00.929Z,102020.33
2018-04-17T04:18:25.951Z,102029.68
2018-04-17T04:19:53.388Z,102031.38
2018-04-17T04:21:16.208Z,102028.41
2018-04-17T04:22:39.160Z,102030.10
2018-04-17T04:24:05.088Z,102031.81
2018-04-17T04:25:33.358Z,102036.48
2018-04-17T04:26:38.868Z,102036.46
2018-04-17T04:27:44.034Z,102030.91
2018-04-17T04:28:55.534Z,102033.02
2018-04-17T04:30:06.116Z,102037.27
2018-04-17T04:31:10.493Z,102030.91
2018-04-17T04:32:14.804Z,102039.86
2018-04-17T04:33:22.977Z,102033.48
2018-04-17T04:34:32.807Z,102041.56
2018-04-17T04:35:38.324Z,102040.73
2018-04-17T04:36:44.427Z,102041.98
2018-04-17T04:37:54.813Z,102041.97
2018-04-17T04:39:02.923Z,102045.80
2018-04-17T04:40:08.395Z,102044.09
2018-04-17T04:41:12.607Z,102052.60
2018-04-17T04:42:16.809Z,102052.59
2018-04-17T04:43:35.320Z,102052.13
2018-04-17T04:44:42.185Z,102055.97
2018-04-17T04:45:46.602Z,102048.73
2018-04-17T04:47:01.139Z,102052.61
2018-04-17T04:48:08.116Z,102052.64
2018-04-17T04:49:12.429Z,102055.65
2018-04-17T04:50:17.380Z,102062.47
2018-04-17T04:51:28.001Z,102059.06
2018-04-17T04:52:35.878Z,102063.34
2018-04-17T04:53:40.161Z,102060.39
2018-04-17T04:54:44.356Z,102065.95
2018-04-17T04:55:55.174Z,102064.23
2018-04-17T04:57:05.518Z,102063.81
2018-04-17T04:58:10.523Z,102065.52
2018-04-17T04:59:14.735Z,102062.53
2018-04-17T05:00:24.674Z,102065.10
2018-04-17T05:01:36.588Z,102071.08
2018-04-17T05:02:40.848Z,102071.09
2018-04-17T05:03:45.814Z,102075.38
2018-04-17T05:04:57.446Z,102077.52
2018-04-17T05:06:07.567Z,102077.94
2018-04-17T05:07:11.778Z,102086.88
2018-04-17T05:08:15.998Z,102085.18
2018-04-17T05:09:21.874Z,102085.62
2018-04-17T05:10:28.067Z,102087.30
2018-04-17T05:11:32.711Z,102092.43
2018-04-17T05:12:37.813Z,102089.42
2018-04-17T05:13:42.428Z,102088.14
2018-04-17T05:14:46.619Z,102092.00
2018-04-17T05:15:53.920Z,102096.66
2018-04-17T05:16:59.267Z,102103.91
2018-04-17T05:18:03.661Z,102103.89
2018-04-17T05:19:08.827Z,102105.17
2018-04-17T05:20:13.040Z,102110.73
2018-04-17T05:21:17.243Z,102112.02
2018-04-17T05:22:25.756Z,102118.41
2018-04-17T05:23:30.886Z,102114.14
2018-04-17T05:24:35.488Z,102120.95
2018-04-17T05:25:39.811Z,102119.68
2018-04-17T05:26:43.992Z,102123.56
2018-04-17T05:27:50.276Z,102128.25
2018-04-17T05:28:56.167Z,102138.48
2018-04-17T05:30:02.376Z,102143.21
2018-04-17T05:31:06.780Z,102144.09
2018-04-17T05:32:11.928Z,102148.78
2018-04-17T05:33:16.174Z,102149.66
2018-04-17T05:34:23.531Z,102153.08
2018-04-17T05:35:29.648Z,102155.63
2018-04-17T05:36:34.990Z,102152.66
2018-04-17T05:37:39.982Z,102151.36
2018-04-17T05:38:44.826Z,102157.80
2018-04-17T05:39:51.358Z,102155.23
2018-04-17T05:40:56.681Z,102166.72
2018-04-17T05:42:01.994Z,102168.01
2018-04-17T05:43:06.413Z,102159.47
2018-04-17T05:44:10.641Z,102166.30
2018-04-17T05:45:14.825Z,102168.87
2018-04-17T05:46:22.014Z,102165.02
2018-04-17T05:47:27.810Z,102165.05
2018-04-17T05:48:33.497Z,102165.04
2018-04-17T05:49:38.461Z,102164.61
2018-04-17T05:50:42.749Z,102171.00
2018-04-17T05:51:48.595Z,102166.73
2018-04-17T05:52:56.014Z,102167.16
2018-04-17T05:54:00.837Z,102168.45
2018-04-17T05:55:05.170Z,102169.31
2018-04-17T05:56:09.384Z,102167.16
2018-04-17T05:57:13.585Z,102166.73
2018-04-17T05:58:17.944Z,102164.20
2018-04-17T05:59:23.866Z,102167.62
2018-04-17T06:00:28.615Z,102162.96
2018-04-17T06:01:33.055Z,102163.81
2018-04-17T06:02:37.271Z,102163.00
2018-04-17T06:03:41.901Z,102166.81
2018-04-17T06:04:46.101Z,102162.55
2018-04-17T06:05:53.296Z,102162.55
2018-04-17T06:06:58.597Z,102170.25
2018-04-17T06:08:04.996Z,102166.81
2018-04-17T06:09:09.619Z,102164.69
2018-04-17T06:10:13.816Z,102167.23
2018-04-17T06:11:19.875Z,102168.97
2018-04-17T06:12:25.686Z,102166.80
2018-04-17T06:13:30.361Z,102179.63
2018-04-17T06:14:36.030Z,102170.63
2018-04-17T06:15:40.230Z,102174.89
2018-04-17T06:16:44.425Z,102165.49
2018-04-17T06:17:49.357Z,102174.03
2018-04-17T06:18:55.211Z,102174.45
2018-04-17T06:20:02.038Z,102174.86
2018-04-17T06:21:07.166Z,102179.52
2018-04-17T06:22:12.146Z,102175.64
2018-04-17T06:23:16.856Z,102181.58
2018-04-17T06:24:31.866Z,102183.27
2018-04-17T06:25:36.452Z,102177.25
2018-04-17T06:26:40.633Z,102176.36
2018-04-17T06:27:44.856Z,102179.80
2018-04-17T06:28:51.402Z,102181.88
2018-04-17T06:29:58.844Z,102175.00
2018-04-17T06:31:04.537Z,102171.53
2018-04-17T06:32:08.762Z,102169.73
2018-04-17T06:33:12.986Z,102167.95
2018-04-17T06:34:19.568Z,102168.78
2018-04-17T06:35:28.903Z,102166.98
2018-04-17T06:36:34.847Z,102166.06
2018-04-17T06:37:39.044Z,102170.67
2018-04-17T06:38:43.241Z,102171.09
2018-04-17T06:39:47.566Z,102174.88
2018-04-17T06:40:57.043Z,102176.92
2018-04-17T06:42:03.161Z,102173.86
2018-04-17T06:43:07.437Z,102168.64
2018-04-17T06:44:11.632Z,102171.59
2018-04-17T06:45:16.674Z,102171.12
2018-04-17T06:46:29.899Z,102169.83
2018-04-17T06:47:38.014Z,102169.81
2018-04-17T06:48:42.174Z,102170.19
2018-04-17T06:49:46.402Z,102173.59
2018-04-17T06:50:57.930Z,102172.64
2018-04-17T06:52:06.690Z,102177.27
2018-04-17T06:53:11.753Z,102171.59
2018-04-17T06:54:15.966Z,102173.58
2018-04-17T06:55:28.718Z,102176.04
2018-04-17T06:56:37.733Z,102181.52
2018-04-17T06:57:42.032Z,102183.07
2018-04-17T06:58:46.858Z,102177.81
2018-04-17T07:00:01.618Z,102180.36
2018-04-17T07:01:09.738Z,102186.77
2018-04-17T07:02:13.958Z,102183.16
2018-04-17T07:03:21.126Z,102186.04
2018-04-17T07:04:34.176Z,102191.94
2018-04-17T07:05:40.650Z,102191.84
2018-04-17T07:06:44.909Z,102186.88
2018-04-17T07:07:54.511Z,102190.39
2018-04-17T07:09:02.598Z,102193.33
2018-04-17T07:10:08.928Z,102191.94
2018-04-17T07:11:13.146Z,102187.20
2018-04-17T07:12:19.008Z,102191.40
2018-04-17T07:13:30.211Z,102195.25
2018-04-17T07:14:38.901Z,102196.42
2018-04-17T07:15:43.127Z,102197.52
2018-04-17T07:16:47.664Z,102196.19
2018-04-17T07:17:56.851Z,102197.09
2018-04-17T07:19:03.981Z,102198.30
2018-04-17T07:20:08.585Z,102202.05
2018-04-17T07:21:12.796Z,102199.11
2018-04-17T07:22:19.037Z,102200.92
2018-04-17T07:23:27.687Z,102209.64
2018-04-17T07:24:36.750Z,102200.13
2018-04-17T07:25:41.006Z,102204.27
2018-04-17T07:26:45.979Z,102204.27
2018-04-17T07:27:52.789Z,102212.34
2018-04-17T07:29:00.896Z,102211.48
2018-04-17T07:30:07.649Z,102215.11
2018-04-17T07:31:12.005Z,102213.58
2018-04-17T07:32:17.199Z,102219.36
2018-04-17T07:33:27.363Z,102217.93
2018-04-17T07:34:36.857Z,102223.37
2018-04-17T07:35:41.108Z,102218.05
2018-04-17T07:36:45.310Z,102221.00
2018-04-17T07:37:55.462Z,102223.95
2018-04-17T07:39:06.414Z,102228.19
2018-04-17T07:40:10.652Z,102226.02
2018-04-17T07:41:14.936Z,102228.39
2018-04-17T07:42:21.674Z,102229.35
2018-04-17T07:43:29.675Z,102232.31
2018-04-17T07:44:37.867Z,102226.81
2018-04-17T07:45:42.091Z,102230.34
2018-04-17T07:46:46.547Z,102235.05
2018-04-17T07:48:17.463Z,102230.86
2018-04-17T07:49:26.684Z,102237.17
2018-04-17T07:50:33.727Z,102233.72
2018-04-17T07:51:38.615Z,102234.26
2018-04-17T07:52:43.318Z,102231.38
2018-04-17T07:53:47.748Z,102234.44
2018-04-17T07:55:00.212Z,102235.50
2018-04-17T07:56:07.975Z,102235.84
2018-04-17T07:57:12.193Z,102234.78
2018-04-17T07:58:16.856Z,102238.97
2018-04-17T07:59:26.927Z,102237.94
2018-04-17T08:00:34.719Z,102242.21
2018-04-17T08:01:38.966Z,102239.08
2018-04-17T08:02:43.948Z,102239.95
2018-04-17T08:03:51.391Z,102231.87
2018-04-17T08:05:01.049Z,102233.06
2018-04-17T08:06:07.863Z,102234.09
2018-04-17T08:07:12.062Z,102236.29
2018-04-17T08:08:16.265Z,102234.51
2018-04-17T08:09:25.520Z,102233.27
2018-04-17T08:10:33.299Z,102240.41
2018-04-17T08:11:38.719Z,102237.11
2018-04-17T08:12:42.935Z,102238.05
2018-04-17T08:13:47.253Z,102235.89
2018-04-17T08:14:56.686Z,102237.09
2018-04-17T08:16:04.763Z,102230.63
2018-04-17T08:17:09.940Z,102233.91
2018-04-17T08:18:14.150Z,102233.31
2018-04-17T08:19:31.842Z,102234.36
2018-04-17T08:20:37.976Z,102231.98
2018-04-17T08:21:42.968Z,102237.44
2018-04-17T08:22:47.213Z,102234.73
2018-04-17T08:23:58.227Z,102239.38
2018-04-17T08:25:05.322Z,102236.06
2018-04-17T08:26:09.918Z,102233.33
2018-04-17T08:27:14.191Z,102238.52
2018-04-17T08:28:21.670Z,102235.72
2018-04-17T08:29:29.441Z,102238.87
2018-04-17T08:30:37.170Z,102237.66
2018-04-17T08:31:41.377Z,102247.24
2018-04-17T08:32:45.624Z,102245.09
2018-04-17T08:33:55.901Z,102238.33
2018-04-17T08:35:03.832Z,102231.65
2018-04-17T08:36:09.349Z,102238.80
2018-04-17T08:37:13.558Z,102240.70
2018-04-17T08:38:19.066Z,102238.66
2018-04-17T08:39:32.803Z,102237.09
2018-04-17T08:40:39.551Z,102241.06
2018-04-17T08:41:44.576Z,102233.66
2018-04-17T08:42:52.159Z,102239.31
2018-04-17T08:44:00.660Z,102237.69
2018-04-17T08:45:07.936Z,102236.22
2018-04-17T08:46:12.145Z,102234.45
2018-04-17T08:47:16.345Z,102232.86
2018-04-17T08:48:25.778Z,102232.68
2018-04-17T08:49:34.488Z,102233.13
2018-04-17T08:50:39.914Z,102228.23
2018-04-17T08:51:44.121Z,102232.20
2018-04-17T08:52:50.493Z,102228.89
2018-04-17T08:54:00.628Z,102221.70
2018-04-17T08:55:08.940Z,102228.05
2018-04-17T08:56:13.543Z,102219.73
2018-04-17T08:57:22.972Z,102224.36
2018-04-17T08:58:32.909Z,102219.52
2018-04-17T08:59:38.437Z,102227.66
2018-04-17T09:00:43.438Z,102224.89
2018-04-17T09:01:49.545Z,102225.71
2018-04-17T09:02:58.652Z,102227.52
2018-04-17T09:04:04.892Z,102228.05
2018-04-17T09:05:09.112Z,102229.19
2018-04-17T09:06:13.314Z,102222.50
2018-04-17T09:07:19.115Z,102219.19
2018-04-17T09:08:26.012Z,102228.02
2018-04-17T09:09:34.189Z,102228.64
2018-04-17T09:10:38.384Z,102220.17
2018-04-17T09:11:43.354Z,102220.61
2018-04-17T09:12:48.468Z,102224.00
2018-04-17T09:13:54.099Z,102222.84
2018-04-17T09:14:59.439Z,102224.12
2018-04-17T09:16:04.778Z,102221.33
2018-04-17T09:17:09.029Z,102228.43
2018-04-17T09:18:13.390Z,102226.59
2018-04-17T09:19:18.915Z,102227.66
2018-04-17T09:20:27.023Z,102234.91
2018-04-17T09:21:32.817Z,102232.85
2018-04-17T09:22:37.158Z,102221.59
2018-04-17T09:23:41.372Z,102227.28
2018-04-17T09:24:45.572Z,102235.23
2018-04-17T09:25:54.705Z,102243.14
2018-04-17T09:27:04.135Z,102237.66
2018-04-17T09:28:08.859Z,102237.33
2018-04-17T09:29:13.103Z,102240.92
2018-04-17T09:30:17.289Z,102247.05
2018-04-17T09:31:28.810Z,102246.74
2018-04-17T09:32:38.801Z,102239.13
2018-04-17T09:33:43.053Z,102248.41
2018-04-17T09:34:51.072Z,102245.53
2018-04-17T09:36:00.241Z,102240.55
2018-04-17T09:37:07.572Z,102242.36
2018-04-17T09:38:11.908Z,102254.16
2018-04-17T09:39:16.316Z,102243.69
2018-04-17T09:40:27.815Z,102245.30
2018-04-17T09:41:36.164Z,102245.58
2018-04-17T09:42:40.733Z,102244.27
2018-04-17T09:43:45.047Z,102247.93
2018-04-17T09:44:55.530Z,102247.01
2018-04-17T09:46:04.421Z,102246.44
2018-04-17T09:47:09.099Z,102239.41
2018-04-17T09:48:13.327Z,102238.41
2018-04-17T09:49:22.915Z,102238.95
2018-04-17T09:50:33.749Z,102234.92
2018-04-17T09:51:38.691Z,102239.95
2018-04-17T09:52:42.905Z,102238.81
2018-04-17T09:53:47.201Z,102236.31
2018-04-17T09:54:57.389Z,102237.13
2018-04-17T09:56:07.316Z,102239.33
2018-04-17T09:57:11.517Z,102244.88
2018-04-17T09:58:15.822Z,102241.53
2018-04-17T09:59:24.145Z,102240.86
2018-04-17T10:00:33.423Z,102242.16
2018-04-17T10:01:39.426Z,102233.73
2018-04-17T10:02:43.640Z,102236.63
2018-04-17T10:05:00.480Z,102236.10
2018-04-17T10:06:06.760Z,102229.45
2018-04-17T10:07:10.969Z,102230.67
2018-04-17T10:08:15.338Z,102231.19
2018-04-17T10:09:22.217Z,102235.67
2018-04-17T10:10:30.533Z,102229.02
2018-04-17T10:11:37.882Z,102238.53
2018-04-17T10:12:42.860Z,102233.00
2018-04-17T10:13:47.078Z,102229.22
2018-04-17T10:14:55.736Z,102228.97
2018-04-17T10:16:02.429Z,102225.30
2018-04-17T10:17:07.421Z,102222.87
2018-04-17T10:18:12.388Z,102237.69
2018-04-17T10:19:16.577Z,102226.83
2018-04-17T10:20:24.663Z,102227.34
2018-04-17T10:21:31.979Z,102231.04
2018-04-17T10:22:37.798Z,102224.59
2018-04-17T10:23:42.041Z,102227.98
2018-04-17T10:24:46.280Z,102229.73
2018-04-17T10:25:55.511Z,102228.91
2018-04-17T10:27:02.164Z,102230.63
2018-04-17T10:28:08.500Z,102235.09
2018-04-17T10:29:12.734Z,102228.05
2018-04-17T10:30:16.985Z,102229.73
2018-04-17T10:31:25.229Z,102232.88
2018-04-17T10:32:30.879Z,102227.27
2018-04-17T10:33:37.288Z,102226.98
2018-04-17T10:34:41.505Z,102227.42
2018-04-17T10:35:47.237Z,102227.23
2018-04-17T10:36:53.917Z,102223.11
2018-04-17T10:38:00.957Z,102223.37
2018-04-17T10:39:07.860Z,102220.37
2018-04-17T10:40:12.086Z,102226.75
2018-04-17T10:41:16.431Z,102223.46
2018-04-17T10:42:24.903Z,102226.02
2018-04-17T10:43:30.361Z,102226.59
2018-04-17T10:44:38.534Z,102223.44
2018-04-17T10:45:42.844Z,102228.14
2018-04-17T10:46:47.309Z,102223.23
2018-04-17T10:47:57.900Z,102230.72
2018-04-17T10:49:06.732Z,102228.52
2018-04-17T10:50:10.961Z,102228.05
2018-04-17T10:51:15.166Z,102220.61
2018-04-17T10:52:23.157Z,102224.62
2018-04-17T10:53:30.203Z,102217.94
2018-04-17T10:54:36.329Z,102214.80
2018-04-17T10:55:41.301Z,102224.55
2018-04-17T10:56:45.695Z,102216.36
2018-04-17T10:57:55.167Z,102226.33
2018-04-17T10:59:05.958Z,102223.27
2018-04-17T11:00:10.323Z,102226.02
2018-04-17T11:01:14.526Z,102216.30
2018-04-17T11:02:20.475Z,102221.06
2018-04-17T11:03:27.835Z,102223.70
2018-04-17T11:04:36.993Z,102223.97
2018-04-17T11:05:41.295Z,102219.59
2018-04-17T11:06:46.043Z,102224.14
2018-04-17T11:07:52.812Z,102223.41
2018-04-17T11:08:59.132Z,102220.48
2018-04-17T11:10:05.370Z,102216.37
2018-04-17T11:11:10.652Z,102213.22
2018-04-17T11:12:14.902Z,102218.74
2018-04-17T11:13:26.979Z,102208.45
2018-04-17T11:14:33.898Z,102211.29
2018-04-17T11:15:39.665Z,102214.05
2018-04-17T11:16:43.886Z,102219.34
2018-04-17T11:17:50.080Z,102211.36
2018-04-17T11:18:58.209Z,102218.41
2018-04-17T11:20:03.483Z,102212.67
2018-04-17T11:21:07.796Z,102220.14
2018-04-17T11:22:12.120Z,102215.42
2018-04-17T11:23:16.410Z,102214.82
2018-04-17T11:24:22.432Z,102215.08
2018-04-17T11:25:28.327Z,102214.56
2018-04-17T11:26:35.856Z,102214.45
2018-04-17T11:27:40.080Z,102217.68
2018-04-17T11:28:44.435Z,102208.34
2018-04-17T11:29:54.954Z,102214.13
2018-04-17T11:31:01.668Z,102216.17
2018-04-17T11:32:07.007Z,102220.80
2018-04-17T11:33:11.585Z,102212.67
2018-04-17T11:34:17.448Z,102215.39
2018-04-17T11:35:25.534Z,102210.50
2018-04-17T11:36:33.496Z,102217.73
2018-04-17T11:37:38.980Z,102207.03
2018-04-17T11:38:43.338Z,102209.22
2018-04-17T11:39:49.643Z,102215.34
2018-04-17T11:40:57.739Z,102215.06
2018-04-17T11:42:03.790Z,102208.90
2018-04-17T11:43:09.174Z,102220.44
2018-04-17T11:44:14.137Z,102213.52
2018-04-17T11:45:20.089Z,102213.00
2018-04-17T11:46:29.836Z,102208.59
2018-04-17T11:47:34.867Z,102208.66
2018-04-17T11:48:39.127Z,102204.89
2018-04-17T11:49:43.349Z,102212.73
2018-04-17T11:50:49.357Z,102205.09
2018-04-17T11:51:59.653Z,102194.26
2018-04-17T11:53:07.708Z,102199.87
2018-04-17T11:54:11.908Z,102200.42
2018-04-17T11:55:16.150Z,102202.14
2018-04-17T11:56:24.156Z,102209.37
2018-04-17T11:57:30.924Z,102206.63
2018-04-17T11:58:36.400Z,102202.48
2018-04-17T11:59:40.725Z,102206.20
2018-04-17T12:00:44.928Z,102203.77
2018-04-17T12:01:51.065Z,102204.77
2018-04-17T12:02:59.132Z,102202.69
2018-04-17T12:04:07.182Z,102214.50
2018-04-17T12:05:11.412Z,102208.36
2018-04-17T12:06:15.630Z,102208.23
2018-04-17T12:07:26.664Z,102210.71
2018-04-17T12:08:32.322Z,102213.73
2018-04-17T12:09:38.991Z,102213.86
2018-04-17T12:10:43.213Z,102207.17
2018-04-17T12:11:48.876Z,102206.40
2018-04-17T12:12:59.384Z,102207.06
2018-04-17T12:14:07.991Z,102209.31
2018-04-17T12:15:12.958Z,102210.88
2018-04-17T12:16:17.224Z,102214.47
2018-04-17T12:17:27.773Z,102209.79
2018-04-17T12:18:35.717Z,102215.64
2018-04-17T12:19:39.950Z,102207.44
2018-04-17T12:20:44.230Z,102210.56
2018-04-17T12:21:53.384Z,102204.97
2018-04-17T12:23:02.214Z,102211.33
2018-04-17T12:24:08.669Z,102216.17
2018-04-17T12:25:12.900Z,102210.99
2018-04-17T12:26:17.186Z,102202.53
2018-04-17T12:27:27.737Z,102198.88
2018-04-17T12:28:38.025Z,102196.03
2018-04-17T12:29:42.285Z,102207.14
2018-04-17T12:30:47.324Z,102206.92
2018-04-17T12:31:57.954Z,102204.52
2018-04-17T12:33:07.227Z,102203.13
2018-04-17T12:34:11.441Z,102209.03
2018-04-17T12:35:15.835Z,102204.09
2018-04-17T12:36:26.773Z,102207.00
2018-04-17T12:37:35.977Z,102203.52
2018-04-17T12:38:40.655Z,102205.14
2018-04-17T12:39:44.847Z,102209.14
2018-04-17T12:42:05.912Z,102204.64
2018-04-17T12:43:10.415Z,102203.09
2018-04-17T12:44:14.618Z,102205.22
2018-04-17T12:45:22.023Z,102202.48